createdAt,value
2019-02-16T00:04:31.336Z,82.90
2019-02-16T00:09:37.592Z,83.40
2019-02-16T00:14:43.809Z,84.70
2019-02-16T00:19:50.020Z,86.90
2019-02-16T00:24:56.231Z,84.90
2019-02-16T00:30:02.450Z,85.20
2019-02-16T00:35:08.731Z,84.60
2019-02-16T00:40:15.049Z,85.60
2019-02-16T00:45:21.336Z,85.20
2019-02-16T00:50:27.554Z,84.40
2019-02-16T00:55:33.809Z,83.70
2019-02-16T01:00:40.042Z,84.10
2019-02-16T01:05:46.294Z,84.60
2019-02-16T01:10:52.497Z,85.60
2019-02-16T01:15:58.666Z,85.00
2019-02-16T01:21:05.593Z,86.20
2019-02-16T01:26:11.900Z,86.30
2019-02-16T01:31:18.155Z,88.10
2019-02-16T01:36:24.474Z,86.50
2019-02-16T01:41:30.831Z,87.00
2019-02-16T01:46:37.124Z,88.90
2019-02-16T01:51:43.436Z,88.40
2019-02-16T01:56:49.712Z,88.10
2019-02-16T02:01:56.020Z,88.10
2019-02-16T02:07:02.824Z,88.10
2019-02-16T02:12:09.195Z,89.20
2019-02-16T02:17:15.525Z,90.00
2019-02-16T02:22:21.808Z,89.30
2019-02-16T02:27:28.196Z,90.30
2019-02-16T02:32:34.482Z,90.60
2019-02-16T02:37:40.793Z,90.60
2019-02-16T02:42:47.098Z,90.50
2019-02-16T02:47:53.365Z,90.20
2019-02-16T02:52:59.768Z,90.10
2019-02-16T02:58:06.233Z,90.10
2019-02-16T03:03:12.513Z,90.50
2019-02-16T03:08:18.991Z,90.20
2019-02-16T03:13:25.273Z,90.40
2019-02-16T03:18:31.614Z,90.60
2019-02-16T03:23:37.871Z,90.50
2019-02-16T03:28:51.406Z,90.80
2019-02-16T03:34:05.935Z,91.10
2019-02-16T03:39:20.971Z,91.10
2019-02-16T03:44:27.276Z,91.80
2019-02-16T03:49:33.585Z,91.50
2019-02-16T03:54:40.058Z,91.60
2019-02-16T03:59:46.500Z,91.40
2019-02-16T04:04:52.815Z,92.00
2019-02-16T04:09:59.195Z,92.10
2019-02-16T04:15:05.535Z,92.30
2019-02-16T04:20:11.734Z,91.90
2019-02-16T04:25:17.950Z,92.40
2019-02-16T04:30:24.224Z,92.40
2019-02-16T04:35:30.392Z,92.20
2019-02-16T04:40:36.740Z,92.60
2019-02-16T04:45:42.929Z,93.70
2019-02-16T04:50:49.400Z,92.80
2019-02-16T04:55:55.611Z,93.20
2019-02-16T05:01:01.868Z,93.00
2019-02-16T05:06:08.160Z,92.10
2019-02-16T05:11:14.334Z,92.90
2019-02-16T05:16:20.538Z,92.60
2019-02-16T05:21:26.708Z,93.10
2019-02-16T05:26:33.003Z,93.20
2019-02-16T05:31:39.228Z,93.10
2019-02-16T05:36:45.513Z,92.70
2019-02-16T05:41:51.684Z,92.80
2019-02-16T05:46:58.036Z,94.10
2019-02-16T05:52:05.236Z,94.90
2019-02-16T05:57:11.553Z,93.60
2019-02-16T06:02:17.810Z,93.50
2019-02-16T06:07:23.984Z,93.30
2019-02-16T06:12:30.203Z,93.20
2019-02-16T06:17:36.376Z,93.20
2019-02-16T06:22:42.585Z,93.80
2019-02-16T06:27:50.420Z,93.70
2019-02-16T06:32:56.713Z,94.00
2019-02-16T06:38:02.980Z,94.00
2019-02-16T06:43:09.223Z,93.80
2019-02-16T06:48:15.498Z,94.20
2019-02-16T06:53:22.705Z,93.90
2019-02-16T06:58:29.014Z,94.30
2019-02-16T07:03:35.221Z,94.40
2019-02-16T07:08:43.974Z,94.20
2019-02-16T07:13:49.738Z,94.10
2019-02-16T07:19:02.840Z,94.20
2019-02-16T07:24:09.240Z,94.70
2019-02-16T07:29:15.613Z,95.10
2019-02-16T07:34:21.894Z,95.40
2019-02-16T07:39:28.149Z,94.40
2019-02-16T07:44:53.326Z,95.60
2019-02-16T07:50:30.403Z,95.40
2019-02-16T07:56:01.499Z,94.70
2019-02-16T08:01:33.987Z,96.10
2019-02-16T08:07:02.939Z,95.50
2019-02-16T08:12:22.182Z,95.80
2019-02-16T08:17:53.106Z,95.70
2019-02-16T08:23:21.219Z,94.40
2019-02-16T08:28:52.611Z,93.20
2019-02-16T08:34:15.840Z,92.90
2019-02-16T08:39:29.730Z,93.00
2019-02-16T08:44:50.156Z,92.90
2019-02-16T08:50:14.003Z,92.20
2019-02-16T08:55:35.779Z,90.20
2019-02-16T09:01:01.250Z,88.50
2019-02-16T09:06:26.576Z,82.80
2019-02-16T09:12:05.838Z,79.40
2019-02-16T09:17:33.247Z,78.40
2019-02-16T09:23:07.361Z,79.20
2019-02-16T09:28:21.999Z,74.80
2019-02-16T09:33:47.198Z,74.00
2019-02-16T09:39:10.703Z,69.90
2019-02-16T09:44:34.440Z,70.40
2019-02-16T09:49:58.260Z,71.40
2019-02-16T09:55:39.835Z,67.30
2019-02-16T10:01:10.950Z,67.50
2019-02-16T10:06:37.603Z,67.10
2019-02-16T10:11:57.804Z,67.20
2019-02-16T10:17:34.927Z,63.40
2019-02-16T10:23:18.296Z,62.60
2019-02-16T10:28:39.721Z,62.30
2019-02-16T10:33:55.659Z,63.10
2019-02-16T10:39:36.474Z,62.40
2019-02-16T10:44:59.746Z,63.10
2019-02-16T10:50:21.715Z,62.60
2019-02-16T10:55:45.313Z,63.10
2019-02-16T11:01:13.316Z,61.90
2019-02-16T11:06:41.588Z,60.10
2019-02-16T11:12:21.557Z,61.80
2019-02-16T11:17:45.252Z,61.60
2019-02-16T11:22:58.441Z,62.20
2019-02-16T11:28:27.135Z,61.80
2019-02-16T11:34:01.096Z,60.90
2019-02-16T11:39:26.447Z,60.00
2019-02-16T11:45:00.742Z,59.70
2019-02-16T11:50:24.538Z,62.50
2019-02-16T11:55:58.457Z,62.40
2019-02-16T12:01:24.129Z,61.70
2019-02-16T12:06:43.511Z,61.00
2019-02-16T12:12:14.578Z,61.10
2019-02-16T12:17:38.643Z,61.10
2019-02-16T12:22:55.454Z,60.00
2019-02-16T12:28:23.870Z,62.40
2019-02-16T12:33:41.711Z,61.00
2019-02-16T12:39:04.851Z,60.20
2019-02-16T12:44:32.862Z,60.30
2019-02-16T12:50:04.148Z,59.70
2019-02-16T12:55:38.446Z,60.00
2019-02-16T13:01:02.097Z,60.00
2019-02-16T13:06:26.034Z,60.90
2019-02-16T13:11:51.339Z,59.80
2019-02-16T13:17:15.534Z,59.70
2019-02-16T13:22:43.623Z,61.60
2019-02-16T13:28:07.090Z,59.60
2019-02-16T13:33:23.228Z,59.30
2019-02-16T13:38:39.668Z,59.80
2019-02-16T13:44:04.863Z,60.00
2019-02-16T13:49:22.550Z,60.20
2019-02-16T13:54:40.627Z,60.90
2019-02-16T14:00:04.100Z,60.50
2019-02-16T14:05:16.779Z,61.30
2019-02-16T14:10:31.859Z,60.00
2019-02-16T14:15:52.211Z,60.40
2019-02-16T14:20:58.555Z,59.30
2019-02-16T14:26:05.433Z,58.60
2019-02-16T14:31:12.412Z,60.40
2019-02-16T14:36:19.426Z,60.80
2019-02-16T14:41:25.793Z,60.80
2019-02-16T14:46:32.116Z,56.00
2019-02-16T14:51:38.327Z,55.90
2019-02-16T14:56:44.563Z,56.10
2019-02-16T15:01:50.801Z,56.10
2019-02-16T15:06:58.173Z,56.40
2019-02-16T15:12:05.395Z,57.20
2019-02-16T15:17:11.633Z,57.80
2019-02-16T15:22:17.951Z,58.70
2019-02-16T15:27:24.210Z,59.80
2019-02-16T15:32:30.429Z,59.90
2019-02-16T15:37:36.664Z,60.20
2019-02-16T15:42:42.873Z,61.10
2019-02-16T15:47:49.110Z,61.20
2019-02-16T15:52:55.422Z,60.60
2019-02-16T15:58:01.745Z,63.20
2019-02-16T16:03:08.416Z,61.40
2019-02-16T16:08:33.633Z,63.00
2019-02-16T16:13:57.444Z,64.20
2019-02-16T16:19:34.418Z,63.70
2019-02-16T16:25:02.630Z,64.80
2019-02-16T16:30:28.047Z,66.50
2019-02-16T16:35:40.459Z,69.10
2019-02-16T16:40:53.818Z,69.80
2019-02-16T16:46:37.080Z,71.80
2019-02-16T16:52:01.532Z,74.60
2019-02-16T16:57:29.814Z,76.60
2019-02-16T17:02:53.123Z,76.00
2019-02-16T17:08:18.388Z,77.90
2019-02-16T17:13:40.089Z,79.10
2019-02-16T17:19:09.340Z,78.60
2019-02-16T17:24:27.864Z,79.40
2019-02-16T17:29:53.050Z,81.30
2019-02-16T17:35:15.091Z,80.80
2019-02-16T17:40:46.266Z,82.40
2019-02-16T17:46:14.233Z,82.60
2019-02-16T17:51:33.088Z,82.60
2019-02-16T17:57:16.541Z,83.40
2019-02-16T18:02:42.647Z,84.20
2019-02-16T18:08:17.091Z,84.10
2019-02-16T18:13:42.435Z,85.00
2019-02-16T18:19:03.002Z,84.50
2019-02-16T18:24:43.413Z,85.10
2019-02-16T18:30:17.464Z,86.30
2019-02-16T18:35:42.714Z,86.60
2019-02-16T18:41:00.449Z,87.10
2019-02-16T18:46:22.330Z,87.20
2019-02-16T18:51:37.931Z,87.60
2019-02-16T18:57:21.328Z,88.10
2019-02-16T19:03:04.547Z,88.40
2019-02-16T19:08:32.071Z,88.40
2019-02-16T19:13:46.590Z,88.20
2019-02-16T19:19:24.071Z,89.40
2019-02-16T19:24:37.233Z,90.10
2019-02-16T19:30:11.279Z,89.70
2019-02-16T19:35:36.506Z,89.90
2019-02-16T19:40:49.089Z,90.40
2019-02-16T19:46:05.873Z,91.00
2019-02-16T19:51:19.132Z,90.90
2019-02-16T19:56:36.239Z,90.20
2019-02-16T20:02:01.483Z,90.10
2019-02-16T20:07:32.800Z,90.20
2019-02-16T20:13:13.124Z,90.10
2019-02-16T20:18:47.435Z,90.40
2019-02-16T20:24:08.036Z,90.20
2019-02-16T20:29:36.899Z,90.70
2019-02-16T20:34:59.911Z,90.80
2019-02-16T20:40:19.711Z,91.00
2019-02-16T20:45:44.164Z,91.10
2019-02-16T20:51:07.884Z,90.80
2019-02-16T20:56:35.807Z,90.90
2019-02-16T21:01:59.468Z,91.30
2019-02-16T21:07:16.769Z,91.10
2019-02-16T21:12:40.454Z,91.00
2019-02-16T21:18:20.522Z,91.10
2019-02-16T21:23:52.341Z,91.00
2019-02-16T21:29:13.610Z,90.90
2019-02-16T21:34:30.826Z,91.60
2019-02-16T21:39:42.741Z,91.40
2019-02-16T21:45:08.181Z,91.50
2019-02-16T21:50:42.238Z,91.50
2019-02-16T21:56:08.927Z,91.40
2019-02-16T22:01:46.395Z,92.50
2019-02-16T22:07:29.928Z,92.80
2019-02-16T22:12:54.032Z,92.90
2019-02-16T22:18:00.312Z,92.60
2019-02-16T22:23:07.589Z,92.40
2019-02-16T22:28:18.689Z,91.80
2019-02-16T22:33:21.823Z,92.10
2019-02-16T22:38:28.032Z,92.20
2019-02-16T22:43:34.298Z,92.50
2019-02-16T22:48:40.593Z,92.80
2019-02-16T22:53:46.921Z,92.30
2019-02-16T22:58:53.227Z,92.60
2019-02-16T23:03:59.441Z,92.80
2019-02-16T23:09:11.810Z,93.30
2019-02-16T23:14:18.255Z,93.10
2019-02-16T23:19:24.519Z,92.80
2019-02-16T23:24:30.766Z,93.10
2019-02-16T23:29:37.093Z,92.90
2019-02-16T23:34:43.332Z,93.10
2019-02-16T23:39:49.654Z,93.20
2019-02-16T23:44:55.927Z,92.90
2019-02-16T23:50:02.236Z,93.00
2019-02-16T23:55:08.876Z,93.00
